BERRYESSA (BER)

Elevation: 456' · PUTAH CR basin · Operator: US Bureau of Reclamation

Provisional data, subject to change.
Query executed Monday at 18:38:36   clock

Select a sensor type for a plot of data.
Note: Reservoir Flows are daily averages.

Earlier

Date RES ELE    STORAGE    OUTFLOW    INFLOW    PPT INC   
 FEET   AF   CFS   CFS   INCHES  
08/02/2015 401.64 900690 500 167 0.00
08/03/2015 401.54 899194 476 -149 0.00
08/04/2015 401.47 898148 490 87 0.00
08/05/2015 401.38 896804 500 -123 0.00
08/06/2015 401.34 896206 473 245 0.00
08/07/2015 401.22 894416 477 -329 0.00
08/08/2015 401.15 893372 480 78 0.00
08/09/2015 401.07 892180 459 -46 0.00
08/10/2015 400.99 890989 481 -9 0.00
08/11/2015 400.89 889501 501 -144 0.00
08/12/2015 400.82 888460 495 80 0.00
08/13/2015 400.74 887271 479 -10 0.00
08/14/2015 400.65 885934 485 -75 0.00
08/15/2015 400.57 884746 509 -8 0.00
08/16/2015 400.50 883708 491 68 0.00
08/17/2015 400.42 882521 473 7 0.00
08/18/2015 400.34 881336 480 38 0.00
08/19/2015 400.24 879855 495 -116 0.00
08/20/2015 400.17 878819 477 69 0.00
08/21/2015 400.08 877488 436 -144 0.00
08/22/2015 400.01 876453 409 -13 0.00
08/23/2015 399.94 875418 367 -64 0.00
08/24/2015 -- -- -- -- --
08/25/2015 -- -- -- -- --
08/26/2015 -- -- -- -- --
08/27/2015 -- -- -- -- --
08/28/2015 -- -- -- -- --
08/29/2015 -- -- -- -- --
08/30/2015 -- -- -- -- --
08/31/2015 -- -- -- -- --

Later | Latest

Warning! This data is preliminary and subject to revision.

Show BER Map | Plot BER Data | 1 Month BER Data | Real-Time BER Data | BER Info